createdAt,value
2023-04-02T00:00:09.102Z,1011.62
2023-04-02T00:00:37.065Z,1011.58
2023-04-02T00:00:51.049Z,1011.58
2023-04-02T00:01:05.046Z,1011.60
2023-04-02T00:01:19.030Z,1011.59
2023-04-02T00:01:47.103Z,1011.57
2023-04-02T00:02:01.205Z,1011.58
2023-04-02T00:02:15.240Z,1011.57
2023-04-02T00:02:29.434Z,1011.57
2023-04-02T00:02:57.636Z,1011.55
2023-04-02T00:03:11.815Z,1011.56
2023-04-02T00:03:25.884Z,1011.58
2023-04-02T00:03:39.961Z,1011.56
2023-04-02T00:04:08.018Z,1011.55
2023-04-02T00:04:22.107Z,1011.56
2023-04-02T00:04:36.125Z,1011.55
2023-04-02T00:04:50.119Z,1011.54
2023-04-02T00:05:18.305Z,1011.57
2023-04-02T00:05:32.435Z,1011.56
2023-04-02T00:05:46.538Z,1011.58
2023-04-02T00:06:00.527Z,1011.56
2023-04-02T00:06:28.509Z,1011.56
2023-04-02T00:06:42.486Z,1011.57
2023-04-02T00:06:56.485Z,1011.58
2023-04-02T00:07:10.474Z,1011.55
2023-04-02T00:07:38.417Z,1011.56
2023-04-02T00:07:52.424Z,1011.57
2023-04-02T00:08:06.430Z,1011.57
2023-04-02T00:08:20.421Z,1011.55
2023-04-02T00:08:48.397Z,1011.56
2023-04-02T00:09:02.384Z,1011.57
2023-04-02T00:09:16.384Z,1011.56
2023-04-02T00:09:30.382Z,1011.55
2023-04-02T00:09:58.358Z,1011.54
2023-04-02T00:10:12.355Z,1011.55
2023-04-02T00:10:26.346Z,1011.55
2023-04-02T00:10:40.416Z,1011.56
2023-04-02T00:11:08.429Z,1011.56
2023-04-02T00:11:22.429Z,1011.57
2023-04-02T00:11:36.440Z,1011.56
2023-04-02T00:11:50.430Z,1011.57
2023-04-02T00:12:18.399Z,1011.56
2023-04-02T00:12:32.400Z,1011.56
2023-04-02T00:12:46.391Z,1011.55
2023-04-02T00:13:00.380Z,1011.56
2023-04-02T00:13:28.328Z,1011.57
2023-04-02T00:13:42.334Z,1011.54
2023-04-02T00:13:56.320Z,1011.56
2023-04-02T00:14:10.294Z,1011.57
2023-04-02T00:14:38.268Z,1011.57
2023-04-02T00:14:52.275Z,1011.60
2023-04-02T00:15:06.261Z,1011.60
2023-04-02T00:15:20.290Z,1011.59
2023-04-02T00:15:34.525Z,1011.58
2023-04-02T00:15:48.666Z,1011.58
2023-04-02T00:16:02.687Z,1011.58
2023-04-02T00:16:16.739Z,1011.57
2023-04-02T00:16:30.848Z,1011.58
2023-04-02T00:16:58.874Z,1011.60
2023-04-02T00:17:12.875Z,1011.57
2023-04-02T00:17:26.868Z,1011.59
2023-04-02T00:17:40.854Z,1011.60
2023-04-02T00:18:08.876Z,1011.59
2023-04-02T00:18:22.894Z,1011.61
2023-04-02T00:18:36.951Z,1011.61
2023-04-02T00:18:50.941Z,1011.60
2023-04-02T00:19:18.895Z,1011.62
2023-04-02T00:19:32.893Z,1011.59
2023-04-02T00:19:46.880Z,1011.59
2023-04-02T00:20:00.869Z,1011.60
2023-04-02T00:20:28.839Z,1011.60
2023-04-02T00:20:42.833Z,1011.58
2023-04-02T00:20:56.812Z,1011.58
2023-04-02T00:21:10.824Z,1011.59
2023-04-02T00:21:39.989Z,1011.59
2023-04-02T00:21:51.454Z,1011.60
2023-04-02T00:22:05.471Z,1011.59
2023-04-02T00:22:19.467Z,1011.59
2023-04-02T00:22:47.417Z,1011.61
2023-04-02T00:23:01.407Z,1011.61
2023-04-02T00:23:15.594Z,1011.60
2023-04-02T00:23:29.592Z,1011.61
2023-04-02T00:23:57.579Z,1011.60
2023-04-02T00:24:11.593Z,1011.60
2023-04-02T00:24:25.574Z,1011.60
2023-04-02T00:24:39.554Z,1011.59
2023-04-02T00:25:07.544Z,1011.61
2023-04-02T00:25:21.525Z,1011.62
2023-04-02T00:25:35.840Z,1011.64
2023-04-02T00:25:50.001Z,1011.63
2023-04-02T00:26:18.001Z,1011.64
2023-04-02T00:26:32.048Z,1011.64
2023-04-02T00:26:46.051Z,1011.62
2023-04-02T00:27:00.046Z,1011.63
2023-04-02T00:27:28.032Z,1011.63
2023-04-02T00:27:42.014Z,1011.63
2023-04-02T00:27:56.033Z,1011.63
2023-04-02T00:28:10.046Z,1011.65
2023-04-02T00:28:38.032Z,1011.65
2023-04-02T00:28:52.024Z,1011.65
2023-04-02T00:29:06.008Z,1011.66
2023-04-02T00:29:20.004Z,1011.63
2023-04-02T00:29:47.967Z,1011.64
2023-04-02T00:30:01.963Z,1011.65
2023-04-02T00:30:15.952Z,1011.66
2023-04-02T00:30:29.937Z,1011.65
2023-04-02T00:30:57.953Z,1011.65
2023-04-02T00:31:11.939Z,1011.64
2023-04-02T00:31:25.935Z,1011.66
2023-04-02T00:31:39.990Z,1011.67
2023-04-02T00:32:08.038Z,1011.63
2023-04-02T00:32:22.071Z,1011.64
2023-04-02T00:32:36.105Z,1011.62
2023-04-02T00:32:50.113Z,1011.66
2023-04-02T00:33:18.074Z,1011.66
2023-04-02T00:33:32.080Z,1011.66
2023-04-02T00:33:46.060Z,1011.66
2023-04-02T00:34:00.049Z,1011.63
2023-04-02T00:34:28.040Z,1011.65
2023-04-02T00:34:42.031Z,1011.66
2023-04-02T00:34:56.048Z,1011.69
2023-04-02T00:35:10.055Z,1011.66
2023-04-02T00:35:38.035Z,1011.66
2023-04-02T00:35:52.051Z,1011.67
2023-04-02T00:36:06.149Z,1011.70
2023-04-02T00:36:20.328Z,1011.71
2023-04-02T00:36:48.371Z,1011.66
2023-04-02T00:37:02.365Z,1011.66
2023-04-02T00:37:16.376Z,1011.67
2023-04-02T00:37:30.356Z,1011.68
2023-04-02T00:37:58.310Z,1011.68
2023-04-02T00:38:12.306Z,1011.66
2023-04-02T00:38:26.293Z,1011.69
2023-04-02T00:38:40.291Z,1011.71
2023-04-02T00:39:10.290Z,1011.70
2023-04-02T00:39:21.728Z,1011.70
2023-04-02T00:39:35.727Z,1011.70
2023-04-02T00:39:49.718Z,1011.71
2023-04-02T00:40:17.728Z,1011.70
2023-04-02T00:40:31.724Z,1011.73
2023-04-02T00:40:45.754Z,1011.73
2023-04-02T00:40:59.749Z,1011.74
2023-04-02T00:41:27.701Z,1011.72
2023-04-02T00:41:41.702Z,1011.72
2023-04-02T00:41:55.698Z,1011.72
2023-04-02T00:42:09.683Z,1011.72
2023-04-02T00:42:37.632Z,1011.72
2023-04-02T00:42:51.632Z,1011.71
2023-04-02T00:43:05.605Z,1011.71
2023-04-02T00:43:19.593Z,1011.70
2023-04-02T00:43:47.566Z,1011.73
2023-04-02T00:44:01.558Z,1011.72
2023-04-02T00:44:15.565Z,1011.72
2023-04-02T00:44:29.590Z,1011.71
2023-04-02T00:44:57.562Z,1011.71
2023-04-02T00:45:11.547Z,1011.73
2023-04-02T00:45:25.547Z,1011.73
2023-04-02T00:45:39.656Z,1011.72
2023-04-02T00:46:07.755Z,1011.73
2023-04-02T00:46:21.805Z,1011.72
2023-04-02T00:46:35.902Z,1011.72
2023-04-02T00:46:50.013Z,1011.72
2023-04-02T00:47:18.120Z,1011.73
2023-04-02T00:47:32.153Z,1011.71
2023-04-02T00:47:46.206Z,1011.72
2023-04-02T00:48:00.240Z,1011.73
2023-04-02T00:48:28.240Z,1011.74
2023-04-02T00:48:42.238Z,1011.72
2023-04-02T00:48:56.234Z,1011.74
2023-04-02T00:49:10.251Z,1011.71
2023-04-02T00:49:38.221Z,1011.71
2023-04-02T00:49:52.215Z,1011.72
2023-04-02T00:50:06.213Z,1011.72
2023-04-02T00:50:20.225Z,1011.72
2023-04-02T00:50:48.181Z,1011.73
2023-04-02T00:51:02.166Z,1011.72
2023-04-02T00:51:16.151Z,1011.72
2023-04-02T00:51:30.145Z,1011.71
2023-04-02T00:51:58.143Z,1011.71
2023-04-02T00:52:12.145Z,1011.70
2023-04-02T00:52:26.134Z,1011.72
2023-04-02T00:52:40.113Z,1011.70
2023-04-02T00:53:08.101Z,1011.73
2023-04-02T00:53:22.094Z,1011.73
2023-04-02T00:53:36.092Z,1011.74
2023-04-02T00:53:50.181Z,1011.73
2023-04-02T00:54:18.121Z,1011.74
2023-04-02T00:54:32.123Z,1011.73
2023-04-02T00:54:46.120Z,1011.74
2023-04-02T00:55:00.111Z,1011.73
2023-04-02T00:55:14.098Z,1011.73
2023-04-02T00:55:28.089Z,1011.73
2023-04-02T00:55:42.081Z,1011.72
2023-04-02T00:55:56.062Z,1011.73
2023-04-02T00:56:10.054Z,1011.74
2023-04-02T00:56:37.998Z,1011.74
2023-04-02T00:56:52.006Z,1011.74
2023-04-02T00:57:06.043Z,1011.78
2023-04-02T00:57:20.109Z,1011.78
2023-04-02T00:57:48.105Z,1011.78
2023-04-02T00:58:02.115Z,1011.77
2023-04-02T00:58:16.133Z,1011.76
2023-04-02T00:58:30.127Z,1011.75
2023-04-02T00:58:58.072Z,1011.77
2023-04-02T00:59:12.070Z,1011.78
2023-04-02T00:59:26.100Z,1011.78
2023-04-02T00:59:40.097Z,1011.78
2023-04-02T01:00:08.086Z,1011.79
2023-04-02T01:00:22.085Z,1011.79
2023-04-02T01:00:36.083Z,1011.80
2023-04-02T01:00:50.088Z,1011.79
2023-04-02T01:01:18.104Z,1011.77
2023-04-02T01:01:32.123Z,1011.78
2023-04-02T01:01:46.345Z,1011.80
2023-04-02T01:02:00.385Z,1011.80
2023-04-02T01:02:28.693Z,1011.78
2023-04-02T01:02:43.099Z,1011.77
2023-04-02T01:02:57.590Z,1011.79
2023-04-02T01:03:11.808Z,1011.79
2023-04-02T01:03:40.380Z,1011.79
2023-04-02T01:03:54.467Z,1011.80
2023-04-02T01:04:08.535Z,1011.79
2023-04-02T01:04:22.668Z,1011.80
2023-04-02T01:04:50.724Z,1011.79
2023-04-02T01:05:04.714Z,1011.78
2023-04-02T01:05:18.742Z,1011.78
2023-04-02T01:05:33.136Z,1011.80
2023-04-02T01:06:01.612Z,1011.79
2023-04-02T01:06:15.650Z,1011.81
2023-04-02T01:06:29.641Z,1011.80
2023-04-02T01:06:43.683Z,1011.81
2023-04-02T01:07:11.679Z,1011.82
2023-04-02T01:07:25.669Z,1011.83
2023-04-02T01:07:39.688Z,1011.81
2023-04-02T01:07:53.676Z,1011.80
2023-04-02T01:08:21.624Z,1011.81
2023-04-02T01:08:35.620Z,1011.82
2023-04-02T01:08:49.627Z,1011.83
2023-04-02T01:09:03.619Z,1011.83
2023-04-02T01:09:31.580Z,1011.83
2023-04-02T01:09:45.587Z,1011.84
2023-04-02T01:09:59.594Z,1011.83
2023-04-02T01:10:13.588Z,1011.82
2023-04-02T01:10:41.633Z,1011.84
2023-04-02T01:10:55.627Z,1011.82
2023-04-02T01:11:09.621Z,1011.81
2023-04-02T01:11:23.612Z,1011.81
2023-04-02T01:11:51.662Z,1011.80
2023-04-02T01:12:05.639Z,1011.81
2023-04-02T01:12:19.678Z,1011.82
2023-04-02T01:12:33.677Z,1011.83
2023-04-02T01:13:01.642Z,1011.85
2023-04-02T01:13:15.640Z,1011.85
2023-04-02T01:13:29.621Z,1011.85
2023-04-02T01:13:43.607Z,1011.84
2023-04-02T01:14:11.567Z,1011.86
2023-04-02T01:14:25.554Z,1011.87
2023-04-02T01:14:39.543Z,1011.88
2023-04-02T01:14:53.528Z,1011.89
2023-04-02T01:15:21.541Z,1011.89
2023-04-02T01:15:35.732Z,1011.88
2023-04-02T01:15:49.909Z,1011.87
2023-04-02T01:16:04.008Z,1011.88
2023-04-02T01:16:18.046Z,1011.87
2023-04-02T01:16:32.172Z,1011.87
2023-04-02T01:16:46.219Z,1011.88
2023-04-02T01:17:00.220Z,1011.89
2023-04-02T01:17:14.195Z,1011.88
2023-04-02T01:17:42.213Z,1011.89
2023-04-02T01:17:56.345Z,1011.88
2023-04-02T01:18:10.358Z,1011.88
2023-04-02T01:18:24.345Z,1011.90
2023-04-02T01:18:52.328Z,1011.89
2023-04-02T01:19:06.333Z,1011.89
2023-04-02T01:19:20.382Z,1011.89
2023-04-02T01:19:34.417Z,1011.90
2023-04-02T01:20:02.396Z,1011.90
2023-04-02T01:20:16.393Z,1011.91
2023-04-02T01:20:30.388Z,1011.93
2023-04-02T01:20:44.390Z,1011.92
2023-04-02T01:21:12.370Z,1011.93
2023-04-02T01:21:26.357Z,1011.94
2023-04-02T01:21:40.353Z,1011.94
2023-04-02T01:21:54.339Z,1011.95
2023-04-02T01:22:22.300Z,1011.97
2023-04-02T01:22:36.301Z,1011.95
2023-04-02T01:22:50.297Z,1011.96
2023-04-02T01:23:04.316Z,1011.97
2023-04-02T01:23:32.316Z,1011.95
2023-04-02T01:23:46.314Z,1011.95
2023-04-02T01:24:00.366Z,1011.96
2023-04-02T01:24:14.370Z,1011.96
2023-04-02T01:24:42.312Z,1011.97
2023-04-02T01:24:56.312Z,1011.97
2023-04-02T01:25:10.303Z,1011.97
2023-04-02T01:25:24.288Z,1011.97
2023-04-02T01:25:52.259Z,1011.96
2023-04-02T01:26:06.250Z,1011.97
2023-04-02T01:26:20.290Z,1011.96
2023-04-02T01:26:34.298Z,1011.95
2023-04-02T01:27:02.294Z,1011.96
2023-04-02T01:27:16.291Z,1011.96
2023-04-02T01:27:30.301Z,1011.96
2023-04-02T01:27:44.314Z,1011.97
2023-04-02T01:28:12.267Z,1011.96
2023-04-02T01:28:26.279Z,1011.96
2023-04-02T01:28:40.264Z,1011.96
2023-04-02T01:28:54.257Z,1011.96
2023-04-02T01:29:22.429Z,1011.96
2023-04-02T01:29:36.402Z,1011.96
2023-04-02T01:29:50.395Z,1011.97
2023-04-02T01:30:04.392Z,1011.98
2023-04-02T01:30:32.332Z,1011.97
2023-04-02T01:30:46.325Z,1011.97
2023-04-02T01:31:00.368Z,1011.97
2023-04-02T01:31:15.080Z,1011.97
2023-04-02T01:31:43.098Z,1011.98
2023-04-02T01:31:57.117Z,1011.98
2023-04-02T01:32:11.103Z,1011.98
2023-04-02T01:32:25.128Z,1011.97
2023-04-02T01:32:53.217Z,1011.98
2023-04-02T01:33:07.361Z,1011.98
2023-04-02T01:33:21.396Z,1011.98
2023-04-02T01:33:35.394Z,1011.97
2023-04-02T01:33:49.423Z,1011.98
2023-04-02T01:34:03.416Z,1011.98
2023-04-02T01:34:17.408Z,1011.98
2023-04-02T01:34:31.409Z,1011.99
2023-04-02T01:34:45.411Z,1012.00
2023-04-02T01:35:13.402Z,1012.00
2023-04-02T01:35:27.393Z,1012.00
2023-04-02T01:35:41.480Z,1012.00
2023-04-02T01:35:55.575Z,1012.01
2023-04-02T01:36:23.597Z,1012.01
2023-04-02T01:36:37.588Z,1012.01
2023-04-02T01:36:51.572Z,1012.01
2023-04-02T01:37:05.570Z,1012.01
2023-04-02T01:37:33.551Z,1012.04
2023-04-02T01:37:47.530Z,1012.05
2023-04-02T01:38:01.522Z,1012.07
2023-04-02T01:38:15.614Z,1012.05
2023-04-02T01:38:43.567Z,1012.04
2023-04-02T01:38:57.575Z,1012.05
2023-04-02T01:39:11.570Z,1012.06
2023-04-02T01:39:25.566Z,1012.08
2023-04-02T01:39:53.545Z,1012.07
2023-04-02T01:40:07.552Z,1012.06
2023-04-02T01:40:21.549Z,1012.07
2023-04-02T01:40:35.533Z,1012.07
2023-04-02T01:41:03.495Z,1012.08
2023-04-02T01:41:17.485Z,1012.09
2023-04-02T01:41:31.468Z,1012.08
2023-04-02T01:41:45.491Z,1012.07
2023-04-02T01:42:13.449Z,1012.08
2023-04-02T01:42:27.433Z,1012.08
2023-04-02T01:42:41.425Z,1012.08
2023-04-02T01:42:55.500Z,1012.08
2023-04-02T01:43:24.055Z,1012.08
2023-04-02T01:43:38.044Z,1012.08
2023-04-02T01:43:52.027Z,1012.09
2023-04-02T01:44:06.014Z,1012.09
2023-04-02T01:44:33.992Z,1012.10
2023-04-02T01:44:47.993Z,1012.11
2023-04-02T01:45:02.009Z,1012.11
2023-04-02T01:45:15.999Z,1012.10
2023-04-02T01:45:43.957Z,1012.11
2023-04-02T01:45:57.973Z,1012.11
2023-04-02T01:46:12.058Z,1012.10
2023-04-02T01:46:26.184Z,1012.11
2023-04-02T01:46:54.282Z,1012.13
2023-04-02T01:47:08.332Z,1012.15
2023-04-02T01:47:22.320Z,1012.15
2023-04-02T01:47:36.320Z,1012.16
2023-04-02T01:48:04.336Z,1012.15
2023-04-02T01:48:18.396Z,1012.15
2023-04-02T01:48:32.405Z,1012.16
2023-04-02T01:48:46.389Z,1012.17
2023-04-02T01:49:14.355Z,1012.18
2023-04-02T01:49:28.562Z,1012.18
2023-04-02T01:49:42.548Z,1012.18
2023-04-02T01:49:56.541Z,1012.17
2023-04-02T01:50:24.506Z,1012.18
2023-04-02T01:50:38.509Z,1012.18
2023-04-02T01:50:52.519Z,1012.17
2023-04-02T01:51:06.512Z,1012.19
2023-04-02T01:51:20.506Z,1012.20
2023-04-02T01:51:34.486Z,1012.20
2023-04-02T01:51:48.498Z,1012.20
2023-04-02T01:52:02.483Z,1012.20
2023-04-02T01:52:16.484Z,1012.22
2023-04-02T01:52:44.457Z,1012.23
2023-04-02T01:52:58.431Z,1012.22
2023-04-02T01:53:12.417Z,1012.24
2023-04-02T01:53:26.400Z,1012.24
2023-04-02T01:53:54.359Z,1012.24
2023-04-02T01:54:08.348Z,1012.25
2023-04-02T01:54:22.333Z,1012.25
2023-04-02T01:54:36.335Z,1012.25
2023-04-02T01:55:04.375Z,1012.25
2023-04-02T01:55:18.353Z,1012.25
2023-04-02T01:55:32.665Z,1012.25
2023-04-02T01:55:46.912Z,1012.25
2023-04-02T01:56:14.911Z,1012.25
2023-04-02T01:56:28.907Z,1012.25
2023-04-02T01:56:42.898Z,1012.25
2023-04-02T01:56:56.918Z,1012.24
2023-04-02T01:57:24.930Z,1012.24
2023-04-02T01:57:38.956Z,1012.25
2023-04-02T01:57:52.966Z,1012.24
2023-04-02T01:58:06.978Z,1012.25
2023-04-02T01:58:34.997Z,1012.25
2023-04-02T01:58:48.981Z,1012.25
2023-04-02T01:59:02.965Z,1012.26
2023-04-02T01:59:16.944Z,1012.27
2023-04-02T01:59:44.906Z,1012.28
2023-04-02T01:59:58.913Z,1012.28
2023-04-02T02:00:12.944Z,1012.28
2023-04-02T02:00:26.959Z,1012.28
2023-04-02T02:00:55.039Z,1012.27
2023-04-02T02:01:09.102Z,1012.26
2023-04-02T02:01:23.240Z,1012.27
2023-04-02T02:01:37.248Z,1012.27
2023-04-02T02:02:05.243Z,1012.29
2023-04-02T02:02:19.349Z,1012.30
2023-04-02T02:02:33.482Z,1012.29
2023-04-02T02:02:47.612Z,1012.30
2023-04-02T02:03:15.662Z,1012.30
2023-04-02T02:03:29.730Z,1012.29
2023-04-02T02:03:43.758Z,1012.31
2023-04-02T02:03:57.736Z,1012.29
2023-04-02T02:04:25.720Z,1012.31
2023-04-02T02:04:39.763Z,1012.31
2023-04-02T02:04:53.755Z,1012.30
2023-04-02T02:05:07.748Z,1012.31
2023-04-02T02:05:35.991Z,1012.31
2023-04-02T02:05:50.181Z,1012.31
2023-04-02T02:06:04.176Z,1012.32
2023-04-02T02:06:18.155Z,1012.33
2023-04-02T02:06:46.099Z,1012.34
2023-04-02T02:07:00.081Z,1012.34
2023-04-02T02:07:14.062Z,1012.33
2023-04-02T02:07:28.054Z,1012.34
2023-04-02T02:07:56.024Z,1012.35
2023-04-02T02:08:10.004Z,1012.36
2023-04-02T02:08:23.990Z,1012.36
2023-04-02T02:08:37.973Z,1012.36
2023-04-02T02:08:52.015Z,1012.36
2023-04-02T02:09:06.045Z,1012.36
2023-04-02T02:09:20.067Z,1012.37
2023-04-02T02:09:34.040Z,1012.37
2023-04-02T02:09:48.026Z,1012.37
2023-04-02T02:10:16.022Z,1012.39
2023-04-02T02:10:30.014Z,1012.39
2023-04-02T02:10:43.999Z,1012.39
2023-04-02T02:10:57.980Z,1012.40
2023-04-02T02:11:25.926Z,1012.41
2023-04-02T02:11:39.935Z,1012.42
2023-04-02T02:11:53.949Z,1012.42
2023-04-02T02:12:07.962Z,1012.42
2023-04-02T02:12:35.920Z,1012.43
2023-04-02T02:12:49.935Z,1012.43
2023-04-02T02:13:03.948Z,1012.44
2023-04-02T02:13:17.939Z,1012.45
2023-04-02T02:13:45.916Z,1012.45
2023-04-02T02:13:59.889Z,1012.45
2023-04-02T02:14:13.876Z,1012.45
2023-04-02T02:14:27.872Z,1012.46
2023-04-02T02:14:55.886Z,1012.47
2023-04-02T02:15:09.884Z,1012.47
2023-04-02T02:15:23.872Z,1012.48
2023-04-02T02:15:37.856Z,1012.49
2023-04-02T02:16:05.854Z,1012.51
2023-04-02T02:16:19.877Z,1012.51
2023-04-02T02:16:33.944Z,1012.50
2023-04-02T02:16:48.026Z,1012.49
2023-04-02T02:17:16.044Z,1012.50
2023-04-02T02:17:30.062Z,1012.50
2023-04-02T02:17:44.109Z,1012.49
2023-04-02T02:17:58.189Z,1012.50
2023-04-02T02:18:26.188Z,1012.52
2023-04-02T02:18:40.189Z,1012.53
2023-04-02T02:18:54.179Z,1012.52
2023-04-02T02:19:08.176Z,1012.52
2023-04-02T02:19:36.143Z,1012.53
2023-04-02T02:19:50.143Z,1012.53
2023-04-02T02:20:04.124Z,1012.53
2023-04-02T02:20:18.116Z,1012.53
2023-04-02T02:20:46.076Z,1012.53
2023-04-02T02:21:00.109Z,1012.53
2023-04-02T02:21:14.105Z,1012.53
2023-04-02T02:21:28.118Z,1012.53
2023-04-02T02:21:56.082Z,1012.53
2023-04-02T02:22:10.090Z,1012.54
2023-04-02T02:22:24.073Z,1012.54
2023-04-02T02:22:38.157Z,1012.54
2023-04-02T02:23:06.116Z,1012.54
2023-04-02T02:23:20.108Z,1012.56
2023-04-02T02:23:34.119Z,1012.56
2023-04-02T02:23:48.112Z,1012.57
2023-04-02T02:24:16.068Z,1012.57
2023-04-02T02:24:30.069Z,1012.59
2023-04-02T02:24:44.058Z,1012.60
2023-04-02T02:24:58.070Z,1012.60
2023-04-02T02:25:26.042Z,1012.59
2023-04-02T02:25:40.022Z,1012.59
2023-04-02T02:25:54.028Z,1012.59
2023-04-02T02:26:08.021Z,1012.59
2023-04-02T02:26:36.025Z,1012.60
2023-04-02T02:26:50.023Z,1012.60
2023-04-02T02:27:04.019Z,1012.60
2023-04-02T02:27:18.010Z,1012.60
2023-04-02T02:27:45.985Z,1012.61
2023-04-02T02:27:59.980Z,1012.62
2023-04-02T02:28:13.993Z,1012.62
2023-04-02T02:28:28.002Z,1012.62
2023-04-02T02:28:55.979Z,1012.62
2023-04-02T02:29:09.980Z,1012.62
2023-04-02T02:29:23.966Z,1012.63
2023-04-02T02:29:37.952Z,1012.64
2023-04-02T02:30:05.918Z,1012.64
2023-04-02T02:30:19.909Z,1012.64
2023-04-02T02:30:33.908Z,1012.64
2023-04-02T02:30:47.881Z,1012.63
2023-04-02T02:31:15.848Z,1012.65
2023-04-02T02:31:29.905Z,1012.66
2023-04-02T02:31:43.953Z,1012.67
2023-04-02T02:31:57.981Z,1012.67
2023-04-02T02:32:26.024Z,1012.67
2023-04-02T02:32:40.078Z,1012.69
2023-04-02T02:32:54.111Z,1012.68
2023-04-02T02:33:08.122Z,1012.68
2023-04-02T02:33:37.062Z,1012.68
2023-04-02T02:33:51.091Z,1012.68
2023-04-02T02:34:05.150Z,1012.68
2023-04-02T02:34:19.139Z,1012.68
2023-04-02T02:34:47.136Z,1012.68
2023-04-02T02:35:01.129Z,1012.66
2023-04-02T02:35:15.125Z,1012.67
2023-04-02T02:35:29.119Z,1012.67
2023-04-02T02:35:57.080Z,1012.67
2023-04-02T02:36:11.118Z,1012.67
2023-04-02T02:36:25.146Z,1012.68
2023-04-02T02:36:39.227Z,1012.67
2023-04-02T02:37:07.226Z,1012.68
2023-04-02T02:37:21.234Z,1012.68
2023-04-02T02:37:35.240Z,1012.69
2023-04-02T02:37:49.298Z,1012.69
2023-04-02T02:38:17.298Z,1012.71
2023-04-02T02:38:31.274Z,1012.71
2023-04-02T02:38:45.271Z,1012.71
2023-04-02T02:38:59.259Z,1012.71
2023-04-02T02:39:27.231Z,1012.71
2023-04-02T02:39:41.225Z,1012.71
2023-04-02T02:39:55.212Z,1012.71
2023-04-02T02:40:09.211Z,1012.70
2023-04-02T02:40:37.165Z,1012.70
2023-04-02T02:40:51.230Z,1012.70
2023-04-02T02:41:05.229Z,1012.70
2023-04-02T02:41:19.218Z,1012.71
2023-04-02T02:41:47.204Z,1012.72
2023-04-02T02:42:01.230Z,1012.72
2023-04-02T02:42:15.227Z,1012.72
2023-04-02T02:42:29.221Z,1012.71
2023-04-02T02:42:57.204Z,1012.71
2023-04-02T02:43:11.184Z,1012.71
2023-04-02T02:43:25.170Z,1012.70
2023-04-02T02:43:39.172Z,1012.69
2023-04-02T02:43:53.163Z,1012.70
2023-04-02T02:44:07.148Z,1012.70
2023-04-02T02:44:21.134Z,1012.70
2023-04-02T02:44:35.143Z,1012.71
2023-04-02T02:44:49.137Z,1012.72
2023-04-02T02:45:17.106Z,1012.72
2023-04-02T02:45:31.094Z,1012.71
2023-04-02T02:45:45.138Z,1012.72
2023-04-02T02:45:59.195Z,1012.72
2023-04-02T02:46:27.163Z,1012.73
2023-04-02T02:46:41.170Z,1012.73
2023-04-02T02:46:55.157Z,1012.73
2023-04-02T02:47:09.170Z,1012.72
2023-04-02T02:47:37.197Z,1012.74
2023-04-02T02:47:51.239Z,1012.74
2023-04-02T02:48:05.273Z,1012.73
2023-04-02T02:48:19.291Z,1012.73
2023-04-02T02:48:47.290Z,1012.74
2023-04-02T02:49:01.292Z,1012.73
2023-04-02T02:49:15.275Z,1012.72
2023-04-02T02:49:29.258Z,1012.73
2023-04-02T02:49:58.938Z,1012.73
2023-04-02T02:50:10.561Z,1012.73
2023-04-02T02:50:24.557Z,1012.74
2023-04-02T02:50:38.538Z,1012.73
2023-04-02T02:51:06.527Z,1012.74
2023-04-02T02:51:20.520Z,1012.74
2023-04-02T02:51:34.502Z,1012.74
2023-04-02T02:51:48.496Z,1012.73
2023-04-02T02:52:16.489Z,1012.73
2023-04-02T02:52:30.480Z,1012.73
2023-04-02T02:52:44.474Z,1012.73
2023-04-02T02:52:58.463Z,1012.74
2023-04-02T02:53:26.434Z,1012.74
2023-04-02T02:53:40.424Z,1012.74
2023-04-02T02:53:54.414Z,1012.75
2023-04-02T02:54:08.416Z,1012.75
2023-04-02T02:54:36.404Z,1012.77
2023-04-02T02:54:50.379Z,1012.76
2023-04-02T02:55:04.436Z,1012.77
2023-04-02T02:55:18.458Z,1012.77
2023-04-02T02:55:46.443Z,1012.75
2023-04-02T02:56:00.461Z,1012.77
2023-04-02T02:56:14.469Z,1012.78
2023-04-02T02:56:28.464Z,1012.77
2023-04-02T02:56:56.445Z,1012.77
2023-04-02T02:57:10.491Z,1012.77
2023-04-02T02:57:24.551Z,1012.77
2023-04-02T02:57:38.660Z,1012.77
2023-04-02T02:58:06.648Z,1012.77
2023-04-02T02:58:20.643Z,1012.77
2023-04-02T02:58:34.631Z,1012.78
2023-04-02T02:58:48.662Z,1012.78
2023-04-02T02:59:16.618Z,1012.79
2023-04-02T02:59:30.634Z,1012.79
2023-04-02T02:59:44.636Z,1012.79
2023-04-02T02:59:58.632Z,1012.80
2023-04-02T03:00:26.610Z,1012.80
2023-04-02T03:00:40.604Z,1012.81
2023-04-02T03:00:54.629Z,1012.82
2023-04-02T03:01:08.654Z,1012.81
2023-04-02T03:01:22.832Z,1012.81
2023-04-02T03:01:36.901Z,1012.81
2023-04-02T03:01:51.105Z,1012.81
2023-04-02T03:02:05.144Z,1012.82
2023-04-02T03:02:19.201Z,1012.81
2023-04-02T03:02:47.462Z,1012.80
2023-04-02T03:03:01.719Z,1012.81
2023-04-02T03:03:15.945Z,1012.81
2023-04-02T03:03:30.190Z,1012.82
2023-04-02T03:03:58.424Z,1012.83
2023-04-02T03:04:12.587Z,1012.82
2023-04-02T03:04:26.642Z,1012.82
2023-04-02T03:04:40.718Z,1012.81
2023-04-02T03:05:08.679Z,1012.81
2023-04-02T03:05:22.666Z,1012.82
2023-04-02T03:05:37.041Z,1012.82
2023-04-02T03:05:51.153Z,1012.81
2023-04-02T03:06:19.125Z,1012.82
2023-04-02T03:06:33.109Z,1012.82
2023-04-02T03:06:47.106Z,1012.82
2023-04-02T03:07:01.098Z,1012.83
2023-04-02T03:07:29.058Z,1012.83
2023-04-02T03:07:43.071Z,1012.83
2023-04-02T03:07:57.064Z,1012.83
2023-04-02T03:08:11.060Z,1012.83
2023-04-02T03:08:39.015Z,1012.83
2023-04-02T03:08:53.001Z,1012.82
2023-04-02T03:09:07.001Z,1012.83
2023-04-02T03:09:21.002Z,1012.84
2023-04-02T03:09:34.991Z,1012.84
2023-04-02T03:09:48.971Z,1012.85
2023-04-02T03:10:02.998Z,1012.85
2023-04-02T03:10:17.001Z,1012.85
2023-04-02T03:10:31.118Z,1012.84
2023-04-02T03:10:59.093Z,1012.85
2023-04-02T03:11:13.081Z,1012.86
2023-04-02T03:11:27.061Z,1012.86
2023-04-02T03:11:41.063Z,1012.86
2023-04-02T03:12:09.041Z,1012.87
2023-04-02T03:12:23.091Z,1012.88
2023-04-02T03:12:37.088Z,1012.89
2023-04-02T03:12:51.087Z,1012.88
2023-04-02T03:13:19.041Z,1012.89
2023-04-02T03:13:33.055Z,1012.88
2023-04-02T03:13:47.095Z,1012.90
2023-04-02T03:14:01.088Z,1012.90
2023-04-02T03:14:29.058Z,1012.89
2023-04-02T03:14:43.054Z,1012.89
2023-04-02T03:14:57.047Z,1012.90
2023-04-02T03:15:11.062Z,1012.89
2023-04-02T03:15:39.216Z,1012.89
2023-04-02T03:15:53.314Z,1012.89
2023-04-02T03:16:07.361Z,1012.90
2023-04-02T03:16:21.461Z,1012.89
2023-04-02T03:16:49.503Z,1012.89
2023-04-02T03:17:03.509Z,1012.89
2023-04-02T03:17:17.494Z,1012.89
2023-04-02T03:17:31.571Z,1012.89
2023-04-02T03:17:59.591Z,1012.89
2023-04-02T03:18:13.610Z,1012.88
2023-04-02T03:18:27.598Z,1012.89
2023-04-02T03:18:41.601Z,1012.89
2023-04-02T03:19:09.595Z,1012.90
2023-04-02T03:19:23.581Z,1012.90
2023-04-02T03:19:37.592Z,1012.90
2023-04-02T03:19:51.582Z,1012.91
2023-04-02T03:20:19.533Z,1012.91
2023-04-02T03:20:33.553Z,1012.90
2023-04-02T03:20:47.643Z,1012.91
2023-04-02T03:21:01.634Z,1012.91
2023-04-02T03:21:29.603Z,1012.92
2023-04-02T03:21:43.602Z,1012.93
2023-04-02T03:21:57.590Z,1012.94
2023-04-02T03:22:11.579Z,1012.94
2023-04-02T03:22:39.582Z,1012.95
2023-04-02T03:22:53.559Z,1012.96
2023-04-02T03:23:07.558Z,1012.97
2023-04-02T03:23:21.580Z,1012.97
2023-04-02T03:23:49.544Z,1012.97
2023-04-02T03:24:03.551Z,1012.98
2023-04-02T03:24:17.533Z,1012.98
2023-04-02T03:24:31.540Z,1012.98
2023-04-02T03:24:59.528Z,1012.99
2023-04-02T03:25:13.544Z,1012.99
2023-04-02T03:25:27.545Z,1012.99
2023-04-02T03:25:41.526Z,1012.99
2023-04-02T03:26:09.500Z,1013.00
2023-04-02T03:26:23.588Z,1013.00
2023-04-02T03:26:37.569Z,1013.01
2023-04-02T03:26:51.565Z,1013.01
2023-04-02T03:27:19.540Z,1013.01
2023-04-02T03:27:33.534Z,1013.02
2023-04-02T03:27:47.553Z,1013.03
2023-04-02T03:28:01.544Z,1013.03
2023-04-02T03:28:29.524Z,1013.04
2023-04-02T03:28:43.526Z,1013.04
2023-04-02T03:28:57.508Z,1013.05
2023-04-02T03:29:11.507Z,1013.05